createdAt,value
2023-03-07T00:02:45.839Z,366.62
2023-03-07T00:05:51.916Z,341.67
2023-03-07T00:09:05.043Z,326.69
2023-03-07T00:12:12.229Z,297.76
2023-03-07T00:15:19.298Z,271.61
2023-03-07T00:18:25.281Z,277.12
2023-03-07T00:21:32.561Z,274.57
2023-03-07T00:24:41.351Z,266.92
2023-03-07T00:27:48.132Z,255.70
2023-03-07T00:30:54.018Z,257.83
2023-03-07T00:34:00.765Z,254.82
2023-03-07T00:37:09.763Z,261.02
2023-03-07T00:40:20.416Z,259.17
2023-03-07T00:43:26.384Z,271.79
2023-03-07T00:46:33.231Z,269.88
2023-03-07T00:49:39.293Z,266.33
2023-03-07T00:52:46.256Z,261.31
2023-03-07T00:56:05.794Z,255.71
2023-03-07T00:59:13.317Z,243.57
2023-03-07T01:02:25.238Z,238.98
2023-03-07T01:05:32.179Z,225.40
2023-03-07T01:08:39.218Z,218.77
2023-03-07T01:11:48.892Z,215.25
2023-03-07T01:14:55.125Z,218.90
2023-03-07T01:18:02.524Z,221.89
2023-03-07T01:21:17.458Z,239.76
2023-03-07T01:24:24.254Z,231.50
2023-03-07T01:27:33.767Z,221.31
2023-03-07T01:30:40.871Z,221.38
2023-03-07T01:33:47.252Z,224.47
2023-03-07T01:36:54.573Z,232.42
2023-03-07T01:40:00.602Z,229.03
2023-03-07T01:43:30.194Z,222.73
2023-03-07T01:46:50.249Z,218.02
2023-03-07T01:50:00.023Z,226.82
2023-03-07T01:53:06.584Z,222.19
2023-03-07T01:56:15.690Z,215.64
2023-03-07T01:59:34.921Z,218.37
2023-03-07T02:02:48.758Z,228.80
2023-03-07T02:06:05.585Z,231.74
2023-03-07T02:09:20.806Z,243.85
2023-03-07T02:12:27.646Z,270.53
2023-03-07T02:15:38.320Z,281.01
2023-03-07T02:18:50.660Z,280.05
2023-03-07T02:22:12.546Z,262.48
2023-03-07T02:25:33.608Z,250.55
2023-03-07T02:28:52.212Z,231.42
2023-03-07T02:32:00.576Z,223.42
2023-03-07T02:35:19.179Z,219.85
2023-03-07T02:38:29.186Z,230.63
2023-03-07T02:41:41.219Z,241.95
2023-03-07T02:45:04.535Z,243.83
2023-03-07T02:48:14.333Z,243.08
2023-03-07T02:51:20.356Z,230.74
2023-03-07T02:54:28.104Z,236.00
2023-03-07T02:57:37.435Z,226.33
2023-03-07T03:00:48.117Z,242.22
2023-03-07T03:03:54.285Z,248.02
2023-03-07T03:07:07.830Z,229.84
2023-03-07T03:10:15.302Z,217.32
2023-03-07T03:13:31.928Z,209.41
2023-03-07T03:16:40.547Z,196.20
2023-03-07T03:19:47.951Z,186.84
2023-03-07T03:22:55.810Z,186.22
2023-03-07T03:26:14.832Z,186.83
2023-03-07T03:29:21.352Z,186.78
2023-03-07T03:32:30.825Z,185.49
2023-03-07T03:35:36.821Z,189.49
2023-03-07T03:38:49.833Z,197.58
2023-03-07T03:42:09.979Z,194.57
2023-03-07T03:45:17.886Z,190.46
2023-03-07T03:48:26.986Z,192.34
2023-03-07T03:51:34.897Z,187.59
2023-03-07T03:54:40.984Z,184.10
2023-03-07T03:57:47.766Z,189.02
2023-03-07T04:00:56.647Z,193.10
2023-03-07T04:04:06.523Z,190.12
2023-03-07T04:07:12.791Z,193.81
2023-03-07T04:10:20.316Z,192.61
2023-03-07T04:13:26.265Z,192.10
2023-03-07T04:16:33.073Z,205.81
2023-03-07T04:19:42.262Z,209.97
2023-03-07T04:22:49.195Z,227.39
2023-03-07T04:25:59.907Z,227.84
2023-03-07T04:29:07.832Z,257.76
2023-03-07T04:32:19.265Z,223.54
2023-03-07T04:35:28.793Z,208.99
2023-03-07T04:38:35.004Z,205.53
2023-03-07T04:41:42.947Z,202.41
2023-03-07T04:44:55.436Z,201.87
2023-03-07T04:48:04.974Z,210.46
2023-03-07T04:51:14.920Z,214.52
2023-03-07T04:54:22.266Z,221.09
2023-03-07T04:57:30.062Z,227.32
2023-03-07T05:00:37.279Z,219.78
2023-03-07T05:03:43.609Z,217.59
2023-03-07T05:07:06.819Z,207.97
2023-03-07T05:10:15.138Z,195.97
2023-03-07T05:13:28.848Z,182.21
2023-03-07T05:16:40.698Z,176.94
2023-03-07T05:19:47.748Z,171.85
2023-03-07T05:23:02.023Z,176.70
2023-03-07T05:26:09.787Z,174.73
2023-03-07T05:29:17.585Z,176.66
2023-03-07T05:32:25.041Z,179.66
2023-03-07T05:35:31.558Z,177.84
2023-03-07T05:38:42.998Z,193.61
2023-03-07T05:41:49.075Z,200.39
2023-03-07T05:44:56.331Z,214.12
2023-03-07T05:48:02.947Z,226.06
2023-03-07T05:51:11.996Z,218.96
2023-03-07T05:54:21.545Z,213.66
2023-03-07T05:57:28.848Z,209.41
2023-03-07T06:00:35.126Z,202.46
2023-03-07T06:03:43.187Z,201.99
2023-03-07T06:06:49.818Z,208.53
2023-03-07T06:09:59.237Z,216.25
2023-03-07T06:13:05.332Z,221.42
2023-03-07T06:16:12.577Z,227.39
2023-03-07T06:19:23.060Z,225.94
2023-03-07T06:22:34.751Z,229.71
2023-03-07T06:25:44.534Z,218.32
2023-03-07T06:28:56.443Z,217.81
2023-03-07T06:32:05.031Z,208.46
2023-03-07T06:35:13.344Z,199.63
2023-03-07T06:38:21.404Z,221.60
2023-03-07T06:41:31.001Z,204.53
2023-03-07T06:44:42.916Z,211.80
2023-03-07T06:47:50.949Z,212.53
2023-03-07T06:50:56.898Z,205.50
2023-03-07T06:54:04.129Z,207.43
2023-03-07T06:57:12.792Z,204.01
2023-03-07T07:00:22.956Z,191.95
2023-03-07T07:03:29.530Z,197.73
2023-03-07T07:06:39.294Z,213.34
2023-03-07T07:09:45.449Z,186.86
2023-03-07T07:12:56.892Z,184.37
2023-03-07T07:16:09.011Z,184.94
2023-03-07T07:19:18.463Z,199.99
2023-03-07T07:22:26.426Z,198.77
2023-03-07T07:25:33.219Z,174.88
2023-03-07T07:28:41.845Z,180.03
2023-03-07T07:31:50.088Z,176.07
2023-03-07T07:34:58.110Z,172.90
2023-03-07T07:38:04.995Z,182.35
2023-03-07T07:41:10.897Z,178.77
2023-03-07T07:44:20.516Z,179.57
2023-03-07T07:47:36.177Z,162.25
2023-03-07T07:50:43.293Z,169.55
2023-03-07T07:53:49.389Z,169.46
2023-03-07T07:57:00.860Z,175.06
2023-03-07T08:00:13.049Z,174.38
2023-03-07T08:03:20.243Z,173.28
2023-03-07T08:06:31.107Z,179.67
2023-03-07T08:09:39.057Z,191.20
2023-03-07T08:12:45.690Z,184.16
2023-03-07T08:15:55.133Z,181.42
2023-03-07T08:19:02.119Z,170.35
2023-03-07T08:22:08.946Z,164.61
2023-03-07T08:25:25.203Z,163.97
2023-03-07T08:28:32.157Z,170.08
2023-03-07T08:31:40.630Z,174.54
2023-03-07T08:34:47.635Z,166.09
2023-03-07T08:37:59.835Z,165.23
2023-03-07T08:41:14.064Z,162.84
2023-03-07T08:44:20.040Z,168.60
2023-03-07T08:47:35.972Z,167.01
2023-03-07T08:50:43.095Z,160.65
2023-03-07T08:53:50.393Z,155.86
2023-03-07T08:57:02.911Z,157.50
2023-03-07T09:00:18.181Z,156.99
2023-03-07T09:03:26.712Z,153.02
2023-03-07T09:06:33.797Z,149.66
2023-03-07T09:09:45.909Z,153.32
2023-03-07T09:12:55.451Z,150.44
2023-03-07T09:16:01.482Z,144.48
2023-03-07T09:19:10.935Z,150.39
2023-03-07T09:22:16.829Z,142.17
2023-03-07T09:25:23.577Z,137.23
2023-03-07T09:28:32.619Z,143.17
2023-03-07T09:31:45.982Z,138.10
2023-03-07T09:34:55.759Z,153.86
2023-03-07T09:38:04.951Z,151.85
2023-03-07T09:41:39.370Z,152.59
2023-03-07T09:45:23.290Z,155.00
2023-03-07T09:49:15.595Z,201.79
2023-03-07T09:52:31.126Z,186.83
2023-03-07T09:55:37.489Z,139.91
2023-03-07T09:58:58.124Z,125.74
2023-03-07T10:02:18.599Z,116.66
2023-03-07T10:05:40.734Z,100.35
2023-03-07T10:08:49.367Z,100.03
2023-03-07T10:12:42.039Z,121.57
2023-03-07T10:15:53.693Z,98.18
2023-03-07T10:19:17.077Z,102.87
2023-03-07T10:22:43.062Z,97.29
2023-03-07T10:25:59.916Z,121.46
2023-03-07T10:29:19.753Z,115.75
2023-03-07T10:32:39.986Z,119.10
2023-03-07T10:35:55.169Z,105.28
2023-03-07T10:39:21.314Z,114.95
2023-03-07T10:42:46.360Z,119.32
2023-03-07T10:45:55.907Z,111.60
2023-03-07T10:49:17.182Z,112.51
2023-03-07T10:52:38.087Z,107.01
2023-03-07T10:55:47.019Z,101.61
2023-03-07T10:59:09.672Z,103.67
2023-03-07T11:02:40.554Z,97.54
2023-03-07T11:05:52.395Z,108.98
2023-03-07T11:08:59.745Z,117.77
2023-03-07T11:12:22.035Z,110.27
2023-03-07T11:15:30.760Z,105.72
2023-03-07T11:18:46.536Z,115.97
2023-03-07T11:21:58.503Z,118.59
2023-03-07T11:25:19.224Z,115.27
2023-03-07T11:28:33.695Z,120.99
2023-03-07T11:32:00.330Z,146.36
2023-03-07T11:35:18.809Z,107.29
2023-03-07T11:38:44.127Z,117.40
2023-03-07T11:41:58.879Z,127.48
2023-03-07T11:45:35.075Z,133.34
2023-03-07T11:49:08.732Z,129.75
2023-03-07T11:52:40.441Z,127.00
2023-03-07T11:56:16.465Z,108.47
2023-03-07T12:00:06.317Z,108.49
2023-03-07T12:04:07.189Z,110.47
2023-03-07T12:07:49.372Z,120.20
2023-03-07T12:11:19.616Z,123.94
2023-03-07T12:14:45.369Z,132.19
2023-03-07T12:18:15.684Z,126.86
2023-03-07T12:21:55.614Z,134.01
2023-03-07T12:25:29.145Z,128.30
2023-03-07T12:28:48.601Z,124.80
2023-03-07T12:32:03.760Z,125.27
2023-03-07T12:35:28.619Z,121.56
2023-03-07T12:38:50.055Z,114.64
2023-03-07T12:42:09.302Z,120.93
2023-03-07T12:45:20.870Z,134.84
2023-03-07T12:48:44.033Z,136.89
2023-03-07T12:51:58.610Z,125.91
2023-03-07T12:55:23.997Z,133.51
2023-03-07T12:58:46.159Z,121.78
2023-03-07T13:02:07.986Z,118.90
2023-03-07T13:05:24.297Z,114.59
2023-03-07T13:08:32.315Z,122.69
2023-03-07T13:11:39.131Z,125.30
2023-03-07T13:14:50.819Z,126.69
2023-03-07T13:18:03.041Z,117.20
2023-03-07T13:21:15.232Z,121.07
2023-03-07T13:24:38.041Z,125.50
2023-03-07T13:27:51.876Z,123.65
2023-03-07T13:31:43.122Z,121.62
2023-03-07T13:34:51.792Z,118.08
2023-03-07T13:38:02.301Z,111.80
2023-03-07T13:41:14.876Z,120.51
2023-03-07T13:44:41.137Z,132.10
2023-03-07T13:47:50.701Z,119.18
2023-03-07T13:51:12.666Z,126.05
2023-03-07T13:54:20.248Z,131.96
2023-03-07T13:57:38.125Z,126.80
2023-03-07T14:00:57.906Z,130.13
2023-03-07T14:04:24.256Z,133.15
2023-03-07T14:07:44.340Z,136.42
2023-03-07T14:10:51.084Z,142.58
2023-03-07T14:14:47.282Z,158.26
2023-03-07T14:18:22.876Z,144.10
2023-03-07T14:21:54.984Z,140.89
2023-03-07T14:25:40.989Z,124.03
2023-03-07T14:28:54.993Z,163.39
2023-03-07T14:32:03.709Z,139.38
2023-03-07T14:35:15.550Z,146.71
2023-03-07T14:38:28.670Z,135.93
2023-03-07T14:41:53.142Z,169.92
2023-03-07T14:45:21.740Z,139.23
2023-03-07T14:49:05.267Z,134.35
2023-03-07T14:52:30.452Z,139.49
2023-03-07T14:55:46.433Z,139.51
2023-03-07T14:58:58.796Z,144.14
2023-03-07T15:02:05.573Z,137.17
2023-03-07T15:05:19.871Z,150.79
2023-03-07T15:08:30.703Z,140.06
2023-03-07T15:11:45.590Z,143.45
2023-03-07T15:14:59.742Z,173.69
2023-03-07T15:18:17.591Z,153.55
2023-03-07T15:21:32.860Z,151.95
2023-03-07T15:24:46.330Z,159.44
2023-03-07T15:28:08.034Z,158.45
2023-03-07T15:31:15.503Z,159.20
2023-03-07T15:34:29.058Z,157.04
2023-03-07T15:37:37.788Z,148.96
2023-03-07T15:40:45.959Z,147.14
2023-03-07T15:44:09.080Z,145.83
2023-03-07T15:47:19.832Z,151.93
2023-03-07T15:50:30.199Z,154.30
2023-03-07T15:53:41.848Z,155.58
2023-03-07T15:56:48.109Z,167.14
2023-03-07T16:00:02.397Z,171.80
2023-03-07T16:03:28.708Z,176.23
2023-03-07T16:06:45.689Z,168.72
2023-03-07T16:09:52.004Z,164.32
2023-03-07T16:12:59.890Z,174.37
2023-03-07T16:16:24.018Z,179.46
2023-03-07T16:19:31.018Z,204.42
2023-03-07T16:22:36.948Z,214.56
2023-03-07T16:25:45.948Z,219.65
2023-03-07T16:28:52.739Z,230.81
2023-03-07T16:32:04.452Z,247.67
2023-03-07T16:35:19.496Z,252.88
2023-03-07T16:38:26.268Z,235.93
2023-03-07T16:41:32.280Z,233.96
2023-03-07T16:44:43.564Z,229.71
2023-03-07T16:47:56.211Z,238.66
2023-03-07T16:51:03.002Z,229.27
2023-03-07T16:54:13.250Z,245.26
2023-03-07T16:57:25.662Z,238.73
2023-03-07T17:00:33.530Z,240.12
2023-03-07T17:03:49.766Z,238.51
2023-03-07T17:07:04.335Z,235.97
2023-03-07T17:10:24.261Z,255.95
2023-03-07T17:13:30.328Z,265.63
2023-03-07T17:16:45.428Z,253.64
2023-03-07T17:19:55.146Z,250.45
2023-03-07T17:23:02.102Z,255.33
2023-03-07T17:26:09.882Z,246.11
2023-03-07T17:29:31.575Z,247.45
2023-03-07T17:32:37.711Z,251.49
2023-03-07T17:35:47.715Z,252.48
2023-03-07T17:38:53.827Z,259.95
2023-03-07T17:42:01.973Z,349.08
2023-03-07T17:45:09.695Z,305.13
2023-03-07T17:48:29.014Z,298.25
2023-03-07T17:51:37.660Z,281.13
2023-03-07T17:54:46.586Z,295.32
2023-03-07T17:57:55.288Z,303.41
2023-03-07T18:01:09.174Z,295.18
2023-03-07T18:04:15.222Z,292.07
2023-03-07T18:07:25.148Z,326.57
2023-03-07T18:10:31.464Z,343.21
2023-03-07T18:13:42.549Z,349.21
2023-03-07T18:16:56.317Z,376.07
2023-03-07T18:20:04.020Z,380.51
2023-03-07T18:23:12.665Z,406.61
2023-03-07T18:26:22.493Z,420.27
2023-03-07T18:29:30.963Z,399.01
2023-03-07T18:32:38.110Z,357.80
2023-03-07T18:35:44.362Z,355.97
2023-03-07T18:38:54.768Z,324.17
2023-03-07T18:42:00.700Z,349.83
2023-03-07T18:45:09.111Z,351.10
2023-03-07T18:48:16.566Z,333.99
2023-03-07T18:51:27.197Z,354.50
2023-03-07T18:54:35.787Z,380.56
2023-03-07T18:57:42.567Z,358.17
2023-03-07T19:00:48.917Z,321.70
2023-03-07T19:04:01.350Z,317.67
2023-03-07T19:07:08.963Z,330.21
2023-03-07T19:10:18.505Z,327.71
2023-03-07T19:13:24.651Z,300.34
2023-03-07T19:16:32.372Z,310.49
2023-03-07T19:19:38.995Z,336.56
2023-03-07T19:22:45.899Z,295.66
2023-03-07T19:25:54.662Z,285.54
2023-03-07T19:29:04.998Z,269.90
2023-03-07T19:32:11.232Z,241.21
2023-03-07T19:35:18.439Z,224.31
2023-03-07T19:38:24.628Z,217.41
2023-03-07T19:41:37.452Z,221.20
2023-03-07T19:44:43.933Z,224.05
2023-03-07T19:47:51.024Z,241.85
2023-03-07T19:50:57.830Z,266.30
2023-03-07T19:54:04.699Z,288.77
2023-03-07T19:57:15.218Z,292.19
2023-03-07T20:00:24.705Z,296.74
2023-03-07T20:03:30.826Z,308.42
2023-03-07T20:06:38.019Z,278.50
2023-03-07T20:09:44.225Z,303.07
2023-03-07T20:12:54.841Z,256.06
2023-03-07T20:16:01.072Z,260.56
2023-03-07T20:19:13.246Z,268.35
2023-03-07T20:22:20.868Z,263.82
2023-03-07T20:25:31.543Z,291.30
2023-03-07T20:28:41.453Z,286.07
2023-03-07T20:31:51.058Z,274.18
2023-03-07T20:34:59.696Z,313.79
2023-03-07T20:38:06.747Z,292.14
2023-03-07T20:41:17.894Z,288.95
2023-03-07T20:44:29.424Z,354.70
2023-03-07T20:51:10.321Z,308.84
2023-03-07T20:54:20.218Z,338.66
2023-03-07T20:57:27.380Z,349.43
2023-03-07T21:00:35.965Z,323.92
2023-03-07T21:03:42.874Z,279.80
2023-03-07T21:06:50.943Z,270.56
2023-03-07T21:09:57.645Z,231.61
2023-03-07T21:13:04.976Z,218.91
2023-03-07T21:16:18.224Z,207.92
2023-03-07T21:19:24.183Z,212.32
2023-03-07T21:22:31.239Z,219.95
2023-03-07T21:25:38.312Z,220.69
2023-03-07T21:28:45.385Z,224.04
2023-03-07T21:31:54.342Z,218.75
2023-03-07T21:35:01.177Z,214.44
2023-03-07T21:38:08.114Z,226.34
2023-03-07T21:41:16.234Z,217.87
2023-03-07T21:44:22.398Z,227.67
2023-03-07T21:47:34.075Z,236.05
2023-03-07T21:50:40.943Z,240.76
2023-03-07T21:53:47.757Z,223.27
2023-03-07T21:56:53.734Z,217.30
2023-03-07T22:00:00.398Z,213.00
2023-03-07T22:03:12.984Z,216.99
2023-03-07T22:06:19.770Z,218.41
2023-03-07T22:09:25.756Z,218.00
2023-03-07T22:12:33.129Z,202.38
2023-03-07T22:15:42.246Z,205.37
2023-03-07T22:18:56.044Z,186.96
2023-03-07T22:22:01.941Z,203.71
2023-03-07T22:25:10.178Z,213.54
2023-03-07T22:28:19.404Z,201.68
2023-03-07T22:31:27.216Z,209.47
2023-03-07T22:34:35.883Z,219.85
2023-03-07T22:37:42.618Z,217.13
2023-03-07T22:40:48.689Z,233.51
2023-03-07T22:43:56.807Z,219.72
2023-03-07T22:47:02.724Z,221.56
2023-03-07T22:50:14.295Z,222.65
2023-03-07T22:53:20.478Z,217.53
2023-03-07T22:56:30.411Z,224.03
2023-03-07T22:59:36.449Z,250.81
2023-03-07T23:02:43.199Z,233.05
2023-03-07T23:05:51.781Z,219.56
2023-03-07T23:08:59.937Z,225.26
2023-03-07T23:12:13.714Z,200.13
2023-03-07T23:15:21.334Z,209.83
2023-03-07T23:18:27.934Z,193.85
2023-03-07T23:21:37.995Z,194.73
2023-03-07T23:24:44.094Z,196.95
2023-03-07T23:27:50.928Z,199.46
2023-03-07T23:30:57.178Z,208.40
2023-03-07T23:34:07.314Z,209.60
2023-03-07T23:37:15.886Z,197.69
2023-03-07T23:40:24.442Z,194.16
2023-03-07T23:43:30.436Z,199.83
2023-03-07T23:46:37.720Z,197.25
2023-03-07T23:49:43.585Z,201.00
2023-03-07T23:52:53.198Z,200.94
2023-03-07T23:55:59.051Z,201.73
2023-03-07T23:59:05.814Z,210.81
